Time;durP1;ratioP1;P1;durP2;ratioP2;P2;SDS_P1;SDS_P2;PMS_P1;PMS_P2;Temp;Humidity;BMP_temperature;BMP_pressure;BME280_temperature;BME280_humidity;BME280_pressure;Samples;Min_cycle;Max_cycle;Signal;HPM_P1;HPM_P2
2023/03/30 00:02:03;;;;;;;15.07;13.48;;;11.30;99.90;;;;;;5108233;28;20039;-87
2023/03/30 00:04:33;;;;;;;16.55;13.07;;;11.30;99.90;;;;;;5100726;28;20039;-86
2023/03/30 00:06:59;;;;;;;15.60;13.00;;;11.30;99.90;;;;;;5100139;28;20710;-86
2023/03/30 00:09:29;;;;;;;15.43;12.77;;;11.30;99.90;;;;;;5100168;28;20057;-87
2023/03/30 00:11:55;;;;;;;16.58;12.90;;;11.40;99.90;;;;;;5103794;28;20040;-86
2023/03/30 00:14:28;;;;;;;15.57;12.20;;;11.40;99.90;;;;;;5109123;28;20168;-86
2023/03/30 00:16:54;;;;;;;13.10;11.45;;;11.50;99.90;;;;;;5112062;28;20097;-86
2023/03/30 00:19:20;;;;;;;14.32;11.18;;;11.50;99.90;;;;;;5098154;28;20066;-87
2023/03/30 00:21:46;;;;;;;16.10;11.65;;;11.50;99.90;;;;;;5100413;28;20028;-87
2023/03/30 00:24:12;;;;;;;14.90;11.60;;;11.50;99.90;;;;;;5104559;28;20036;-86
2023/03/30 00:26:38;;;;;;;13.35;10.65;;;11.60;99.90;;;;;;5105364;28;20040;-86
2023/03/30 00:29:03;;;;;;;15.00;10.80;;;11.60;99.90;;;;;;5106774;28;20050;-86
2023/03/30 00:31:29;;;;;;;13.68;10.77;;;11.60;99.90;;;;;;5105506;28;20038;-86
2023/03/30 00:33:55;;;;;;;12.98;10.55;;;11.60;99.90;;;;;;5103603;28;20028;-86
2023/03/30 00:36:21;;;;;;;14.18;10.70;;;11.50;99.90;;;;;;5103524;28;20065;-87
2023/03/30 00:38:47;;;;;;;14.65;11.07;;;11.60;99.90;;;;;;5108279;28;20048;-86
2023/03/30 00:41:13;;;;;;;13.15;9.93;;;11.50;99.90;;;;;;5106011;28;20426;-86
2023/03/30 00:43:58;;;;;;;12.80;9.98;;;11.50;99.90;;;;;;5109722;28;20115;-86
2023/03/30 00:46:24;;;;;;;13.63;9.98;;;11.40;99.90;;;;;;5105456;28;20130;-86
2023/03/30 00:48:50;;;;;;;13.73;10.10;;;11.40;99.90;;;;;;5112531;28;20114;-86
2023/03/30 00:51:17;;;;;;;14.13;10.18;;;11.40;99.90;;;;;;5112047;28;20039;-87
2023/03/30 00:53:51;;;;;;;13.93;10.35;;;11.40;99.90;;;;;;5112598;28;20044;-86
2023/03/30 00:56:21;;;;;;;13.07;9.90;;;11.40;99.90;;;;;;5105172;28;20361;-86
2023/03/30 00:58:48;;;;;;;14.27;9.95;;;11.40;99.90;;;;;;5108038;28;20092;-86
2023/03/30 01:01:24;;;;;;;14.13;9.60;;;11.40;99.90;;;;;;5110864;28;20118;-86
2023/03/30 01:03:51;;;;;;;12.38;9.70;;;11.40;99.90;;;;;;5092638;28;20043;-86
2023/03/30 01:06:20;;;;;;;12.80;9.65;;;11.40;99.90;;;;;;5091063;28;20048;-87
2023/03/30 01:08:46;;;;;;;12.55;9.30;;;11.40;99.90;;;;;;5104700;28;20050;-87
2023/03/30 01:11:12;;;;;;;14.20;9.68;;;11.40;99.90;;;;;;5104586;28;20027;-86
2023/03/30 01:13:41;;;;;;;11.90;9.13;;;11.40;99.90;;;;;;5105128;28;20031;-86
2023/03/30 01:16:26;;;;;;;14.50;9.02;;;11.50;99.90;;;;;;5103752;28;20039;-86
2023/03/30 01:18:53;;;;;;;12.88;9.43;;;11.50;99.90;;;;;;5103514;28;20052;-86
2023/03/30 01:21:38;;;;;;;12.05;9.27;;;11.50;99.90;;;;;;5102210;28;20040;-86
2023/03/30 01:24:28;;;;;;;12.07;9.30;;;11.50;99.90;;;;;;5105958;28;20051;-86
2023/03/30 01:27:02;;;;;;;13.32;9.15;;;11.60;99.90;;;;;;5106060;28;20069;-87
2023/03/30 01:29:40;;;;;;;13.60;9.23;;;11.60;99.90;;;;;;5110662;28;20434;-86
2023/03/30 01:32:22;;;;;;;12.75;9.32;;;11.60;99.90;;;;;;5098854;28;20044;-86
2023/03/30 01:35:04;;;;;;;13.23;9.10;;;11.60;99.90;;;;;;5102166;28;20038;-86
2023/03/30 01:37:41;;;;;;;11.80;8.85;;;11.50;99.90;;;;;;5103111;28;20040;-86
2023/03/30 01:40:17;;;;;;;12.80;8.73;;;11.60;99.90;;;;;;5103121;28;20457;-86
2023/03/30 01:43:09;;;;;;;12.15;8.65;;;11.70;99.90;;;;;;5101263;28;20040;-85
2023/03/30 01:45:49;;;;;;;13.10;9.07;;;11.70;99.90;;;;;;5102087;28;20082;-85
2023/03/30 01:48:44;;;;;;;12.70;8.43;;;11.70;99.90;;;;;;5095263;28;20449;-86
2023/03/30 01:51:32;;;;;;;12.40;8.38;;;11.70;99.90;;;;;;5096935;28;20055;-86
2023/03/30 01:54:19;;;;;;;13.25;8.40;;;11.80;99.90;;;;;;5103381;28;20036;-86
2023/03/30 01:57:05;;;;;;;12.60;8.20;;;11.80;99.90;;;;;;5103544;28;20420;-86
2023/03/30 01:59:37;;;;;;;12.82;8.48;;;11.90;99.90;;;;;;5103162;28;20048;-85
2023/03/30 02:02:05;;;;;;;11.60;8.15;;;11.90;99.90;;;;;;5102957;28;20035;-87
2023/03/30 02:04:37;;;;;;;12.73;8.00;;;11.90;99.90;;;;;;5109868;28;20119;-86
2023/03/30 02:07:16;;;;;;;11.82;8.30;;;11.90;99.90;;;;;;5102812;27;20041;-86
2023/03/30 02:09:43;;;;;;;13.60;8.40;;;11.80;99.90;;;;;;5103312;28;20043;-86
2023/03/30 02:12:10;;;;;;;12.02;8.50;;;11.80;99.90;;;;;;5106146;28;20047;-86
2023/03/30 02:14:39;;;;;;;11.82;8.30;;;11.80;99.90;;;;;;5100422;28;20053;-85
2023/03/30 02:17:15;;;;;;;11.88;7.90;;;11.80;99.90;;;;;;5103627;28;20031;-87
2023/03/30 02:19:45;;;;;;;11.10;7.82;;;11.80;99.90;;;;;;5111321;28;20035;-86
2023/03/30 02:22:12;;;;;;;12.80;8.43;;;11.80;99.90;;;;;;5105656;28;20050;-87
2023/03/30 02:24:39;;;;;;;11.77;8.07;;;11.70;99.90;;;;;;5104214;28;20048;-86
2023/03/30 02:27:05;;;;;;;12.13;7.90;;;11.80;99.90;;;;;;5101953;28;20495;-87
2023/03/30 02:29:33;;;;;;;12.57;8.68;;;11.80;99.90;;;;;;5107636;28;20403;-86
2023/03/30 02:31:59;;;;;;;11.82;7.80;;;11.80;99.90;;;;;;5098553;28;20074;-86
2023/03/30 02:34:42;;;;;;;11.65;8.10;;;11.70;99.90;;;;;;5104372;28;20048;-87
2023/03/30 02:37:23;;;;;;;12.80;8.35;;;11.70;99.90;;;;;;5107954;28;20084;-86
2023/03/30 02:40:14;;;;;;;11.38;7.80;;;11.70;99.90;;;;;;5111603;28;20043;-87
2023/03/30 02:42:58;;;;;;;;;;;11.80;99.90;;;;;;5100407;28;20101;-86
2023/03/30 02:45:42;;;;;;;11.80;8.07;;;11.60;99.90;;;;;;5090929;28;20299;-86
2023/03/30 02:48:26;;;;;;;11.02;7.35;;;11.70;99.90;;;;;;5090867;28;20076;-86
2023/03/30 02:51:16;;;;;;;10.75;7.20;;;11.70;99.90;;;;;;5090009;28;20043;-86
2023/03/30 02:53:48;;;;;;;11.77;7.30;;;11.70;99.90;;;;;;5102758;28;20111;-86
2023/03/30 02:56:27;;;;;;;11.82;7.25;;;11.70;99.90;;;;;;5110732;28;20285;-88
2023/03/30 02:59:13;;;;;;;10.27;6.65;;;11.70;99.90;;;;;;5112453;28;20131;-86
2023/03/30 03:01:38;;;;;;;11.75;7.30;;;11.70;99.90;;;;;;5111334;28;20439;-87
2023/03/30 03:04:06;;;;;;;11.85;6.50;;;11.60;99.90;;;;;;5112025;28;20042;-87
2023/03/30 03:06:31;;;;;;;10.82;6.85;;;11.70;99.90;;;;;;5109379;28;20038;-87
2023/03/30 03:08:58;;;;;;;10.90;7.07;;;11.70;99.90;;;;;;5104284;28;20059;-87
2023/03/30 03:11:24;;;;;;;10.30;6.22;;;11.60;99.90;;;;;;5103030;28;20080;-87
2023/03/30 03:13:50;;;;;;;10.30;6.22;;;11.60;99.90;;;;;;5102926;28;20047;-86
2023/03/30 03:16:16;;;;;;;11.15;5.97;;;11.60;99.90;;;;;;5102985;28;20031;-87
2023/03/30 03:18:41;;;;;;;9.38;5.80;;;11.60;99.90;;;;;;5101370;28;20035;-86
2023/03/30 03:21:08;;;;;;;11.88;6.65;;;11.60;99.90;;;;;;5101364;28;20043;-87
2023/03/30 03:23:35;;;;;;;10.55;5.93;;;11.60;99.90;;;;;;5098915;28;20069;-86
2023/03/30 03:26:01;;;;;;;10.90;5.07;;;11.60;99.90;;;;;;5100885;28;20044;-86
2023/03/30 03:28:28;;;;;;;10.68;5.55;;;11.60;99.90;;;;;;5102632;28;20039;-86
2023/03/30 03:30:54;;;;;;;10.20;5.10;;;11.70;99.90;;;;;;5102154;28;20055;-86
2023/03/30 03:33:20;;;;;;;9.30;5.15;;;11.80;99.90;;;;;;5103315;28;20036;-86
2023/03/30 03:35:46;;;;;;;9.27;4.70;;;11.80;99.90;;;;;;5101772;28;20046;-87
2023/03/30 03:38:12;;;;;;;9.25;4.88;;;11.90;99.90;;;;;;5099865;28;20050;-87
2023/03/30 03:40:39;;;;;;;10.27;4.85;;;12.00;99.90;;;;;;5101849;28;20035;-85
2023/03/30 03:43:04;;;;;;;10.27;4.65;;;12.00;99.90;;;;;;5100865;28;20054;-85
2023/03/30 03:45:30;;;;;;;9.43;4.82;;;12.10;99.90;;;;;;5102486;28;20035;-86
2023/03/30 03:47:56;;;;;;;10.93;5.10;;;12.10;99.90;;;;;;5104590;28;20557;-87
2023/03/30 03:50:21;;;;;;;10.15;4.78;;;12.20;99.90;;;;;;5105029;28;20031;-87
2023/03/30 03:52:47;;;;;;;10.63;4.90;;;12.30;99.90;;;;;;5106429;28;20050;-85
2023/03/30 03:55:13;;;;;;;9.75;4.70;;;12.40;99.90;;;;;;5107143;28;20047;-86
2023/03/30 03:57:39;;;;;;;10.30;4.47;;;12.40;99.90;;;;;;5107216;28;20047;-85
2023/03/30 04:00:14;;;;;;;8.95;4.30;;;12.60;99.90;;;;;;5105576;28;20035;-87
2023/03/30 04:02:40;;;;;;;10.75;4.20;;;12.60;99.90;;;;;;5105255;28;20491;-86
2023/03/30 04:05:06;;;;;;;9.68;4.07;;;12.70;99.90;;;;;;5107064;28;20120;-87
2023/03/30 04:07:33;;;;;;;8.93;4.65;;;12.90;99.90;;;;;;5107657;28;20537;-83
2023/03/30 04:09:58;;;;;;;10.68;4.20;;;12.90;99.90;;;;;;5110736;28;20415;-85
2023/03/30 04:12:24;;;;;;;11.13;4.38;;;13.00;99.90;;;;;;5108309;28;20032;-86
2023/03/30 04:14:50;;;;;;;10.43;4.03;;;13.00;99.90;;;;;;5110064;28;20134;-85
2023/03/30 04:17:15;;;;;;;9.98;4.40;;;13.00;99.90;;;;;;5107684;28;20044;-85
2023/03/30 04:19:41;;;;;;;10.88;4.38;;;13.10;99.90;;;;;;5108387;28;20456;-86
2023/03/30 04:22:07;;;;;;;9.98;4.68;;;13.00;99.90;;;;;;5108254;28;20475;-85
2023/03/30 04:24:34;;;;;;;11.07;4.60;;;13.00;99.90;;;;;;5112200;27;20441;-85
2023/03/30 04:27:00;;;;;;;8.85;4.28;;;12.90;99.90;;;;;;5112337;28;20047;-85
2023/03/30 04:29:26;;;;;;;11.77;4.70;;;12.90;99.90;;;;;;5111788;28;20433;-85
2023/03/30 04:31:52;;;;;;;11.15;4.75;;;12.80;99.90;;;;;;5114944;28;20043;-85
2023/03/30 04:34:20;;;;;;;8.98;4.70;;;12.80;99.90;;;;;;5113999;28;21242;-87
2023/03/30 04:36:47;;;;;;;11.60;5.22;;;12.80;99.90;;;;;;5095972;28;20047;-87
2023/03/30 04:39:12;;;;;;;11.60;5.03;;;12.70;99.90;;;;;;5093286;28;20044;-88
2023/03/30 04:41:40;;;;;;;8.95;5.07;;;12.60;99.90;;;;;;5097709;28;20449;-87
2023/03/30 04:44:08;;;;;;;11.35;4.97;;;12.50;99.90;;;;;;5114780;28;20480;-87
2023/03/30 04:46:35;;;;;;;10.75;5.18;;;12.40;99.90;;;;;;5114309;28;20088;-87
2023/03/30 04:49:01;;;;;;;10.10;5.25;;;12.30;99.90;;;;;;5114162;28;20047;-87
2023/03/30 04:51:27;;;;;;;12.57;5.70;;;12.20;99.90;;;;;;5112264;28;20169;-86
2023/03/30 04:53:54;;;;;;;14.88;5.85;;;12.10;99.90;;;;;;5112352;28;20031;-87
2023/03/30 04:56:19;;;;;;;11.65;6.15;;;12.00;99.90;;;;;;5113350;27;20050;-85
2023/03/30 04:58:45;;;;;;;12.07;5.60;;;12.00;99.90;;;;;;5112088;28;20048;-88
2023/03/30 05:01:11;;;;;;;12.43;5.97;;;11.90;99.90;;;;;;5113833;28;20065;-86
2023/03/30 05:03:36;;;;;;;11.73;6.03;;;11.90;99.90;;;;;;5113452;28;20038;-86
2023/03/30 05:06:02;;;;;;;10.95;6.45;;;11.90;99.90;;;;;;5107191;28;20096;-87
2023/03/30 05:08:29;;;;;;;10.85;6.20;;;11.80;99.90;;;;;;5107336;28;20580;-84
2023/03/30 05:10:56;;;;;;;9.73;6.07;;;11.90;99.90;;;;;;5106057;28;20069;-84
2023/03/30 05:13:22;;;;;;;11.07;5.82;;;11.90;99.90;;;;;;5106423;28;20032;-85
2023/03/30 05:15:54;;;;;;;13.02;6.10;;;11.90;99.90;;;;;;5113702;28;20061;-86
2023/03/30 05:18:20;;;;;;;11.13;6.00;;;12.00;99.90;;;;;;5104935;28;20061;-85
2023/03/30 05:20:46;;;;;;;11.48;5.90;;;11.90;99.90;;;;;;5104669;28;20039;-87
2023/03/30 05:23:12;;;;;;;9.73;5.78;;;11.90;99.90;;;;;;5106095;28;20039;-89
2023/03/30 05:25:38;;;;;;;10.48;5.50;;;11.90;99.90;;;;;;5118496;28;20452;-91
2023/03/30 05:28:03;;;;;;;14.23;5.90;;;11.90;99.90;;;;;;5108639;27;20071;-89
2023/03/30 05:30:29;;;;;;;10.15;5.70;;;12.00;99.90;;;;;;5107869;28;20066;-88
2023/03/30 05:32:55;;;;;;;11.05;5.70;;;12.00;99.90;;;;;;5110727;28;20392;-90
2023/03/30 05:35:21;;;;;;;10.10;5.57;;;11.90;99.90;;;;;;5113563;28;20110;-88
2023/03/30 05:37:48;;;;;;;11.93;5.65;;;12.00;99.90;;;;;;5115100;28;20043;-91
2023/03/30 05:40:14;;;;;;;10.20;5.15;;;12.00;99.90;;;;;;5117802;28;20114;-94
2023/03/30 05:42:40;;;;;;;11.52;5.43;;;12.00;99.90;;;;;;5115491;28;20039;-87
2023/03/30 05:45:07;;;;;;;9.15;5.07;;;12.00;99.90;;;;;;5106029;28;20511;-89
2023/03/30 05:47:34;;;;;;;10.32;5.00;;;12.10;99.90;;;;;;5111288;28;20458;-96
2023/03/30 05:50:01;;;;;;;9.63;4.88;;;12.10;99.90;;;;;;5109849;28;20094;-89
2023/03/30 05:52:27;;;;;;;12.25;4.90;;;12.10;99.90;;;;;;5109870;28;20048;-88
2023/03/30 05:54:52;;;;;;;11.07;4.90;;;12.10;99.90;;;;;;5106606;28;20032;-90
2023/03/30 05:57:18;;;;;;;11.88;4.30;;;12.10;99.90;;;;;;5100158;28;20039;-91
2023/03/30 05:59:44;;;;;;;10.10;4.80;;;12.10;99.90;;;;;;5108952;28;20047;-89
2023/03/30 06:02:11;;;;;;;12.07;5.07;;;12.10;99.90;;;;;;5105338;28;20484;-95
2023/03/30 06:04:37;;;;;;;10.10;5.00;;;12.10;99.90;;;;;;5106060;28;20057;-88
2023/03/30 06:07:03;;;;;;;11.18;4.78;;;12.10;99.90;;;;;;5109576;28;20040;-88
2023/03/30 06:09:29;;;;;;;9.82;5.30;;;12.10;99.90;;;;;;5085841;28;20038;-92
2023/03/30 06:11:55;;;;;;;11.23;4.78;;;12.00;99.90;;;;;;5108085;28;20032;-86
2023/03/30 06:14:21;;;;;;;11.55;5.45;;;12.00;99.90;;;;;;5102868;28;20273;-88
2023/03/30 06:16:46;;;;;;;11.25;4.95;;;12.00;99.90;;;;;;5097712;28;20035;-93
2023/03/30 06:19:13;;;;;;;11.68;5.07;;;11.90;99.90;;;;;;5105576;28;20051;-85
2023/03/30 06:21:39;;;;;;;12.65;5.72;;;11.90;99.90;;;;;;5108664;28;20039;-83
2023/03/30 06:24:05;;;;;;;10.52;5.00;;;12.00;99.90;;;;;;5110445;28;20381;-83
2023/03/30 06:26:31;;;;;;;11.35;5.40;;;11.90;99.90;;;;;;5108154;28;20047;-83
2023/03/30 06:28:56;;;;;;;12.13;5.75;;;12.00;99.90;;;;;;5111428;28;20114;-83
2023/03/30 06:31:22;;;;;;;11.35;6.00;;;12.00;99.90;;;;;;5109994;28;20121;-83
2023/03/30 06:33:49;;;;;;;10.65;5.25;;;12.00;99.90;;;;;;5110835;28;20546;-83
2023/03/30 06:36:14;;;;;;;12.23;5.43;;;12.00;99.90;;;;;;5110740;28;20039;-83
2023/03/30 06:38:42;;;;;;;10.80;5.53;;;12.00;99.90;;;;;;5110538;28;20084;-83
2023/03/30 06:41:10;;;;;;;11.18;5.60;;;12.10;99.90;;;;;;5109480;28;20050;-82
2023/03/30 06:43:37;;;;;;;12.18;5.53;;;12.20;99.90;;;;;;5110729;28;20035;-83
2023/03/30 06:46:03;;;;;;;12.05;5.90;;;12.30;99.90;;;;;;5108084;28;20075;-83
2023/03/30 06:48:28;;;;;;;12.35;5.22;;;12.30;99.90;;;;;;5092476;28;20884;-82
2023/03/30 06:50:54;;;;;;;11.80;4.78;;;12.40;99.90;;;;;;5092288;28;20067;-83
2023/03/30 06:53:22;;;;;;;12.57;4.78;;;12.50;99.90;;;;;;5102478;28;20373;-83
2023/03/30 06:55:52;;;;;;;11.88;4.15;;;12.50;99.90;;;;;;5109511;28;20035;-83
2023/03/30 06:58:17;;;;;;;12.52;4.20;;;12.70;99.90;;;;;;5110125;28;20051;-83
2023/03/30 07:00:43;;;;;;;11.32;4.18;;;12.70;99.90;;;;;;5111177;28;20039;-83
2023/03/30 07:03:09;;;;;;;13.68;4.32;;;12.70;99.90;;;;;;5110814;28;20048;-82
2023/03/30 07:05:34;;;;;;;12.68;3.72;;;12.80;99.90;;;;;;5110723;28;20392;-83
2023/03/30 07:08:00;;;;;;;11.88;4.10;;;12.80;99.90;;;;;;5110690;28;20048;-84
2023/03/30 07:10:26;;;;;;;11.35;4.20;;;12.80;99.90;;;;;;5110036;28;20043;-83
2023/03/30 07:12:51;;;;;;;13.43;3.80;;;13.00;99.90;;;;;;5110839;28;20032;-84
2023/03/30 07:15:17;;;;;;;14.40;4.03;;;13.00;99.90;;;;;;5110619;28;20043;-88
2023/03/30 07:17:43;;;;;;;13.10;4.50;;;13.00;99.90;;;;;;5109792;28;20047;-84
2023/03/30 07:20:10;;;;;;;11.48;4.03;;;13.00;99.90;;;;;;5111402;28;20032;-83
2023/03/30 07:22:36;;;;;;;15.88;4.65;;;13.00;99.90;;;;;;5115111;28;20051;-83
2023/03/30 07:25:02;;;;;;;14.80;4.78;;;13.10;99.90;;;;;;5111124;28;20531;-83
2023/03/30 07:27:28;;;;;;;14.25;5.15;;;13.00;99.90;;;;;;5111500;28;20647;-85
2023/03/30 07:29:54;;;;;;;14.45;4.28;;;13.00;99.90;;;;;;5113067;28;20135;-83
2023/03/30 07:32:20;;;;;;;14.35;4.45;;;13.10;99.90;;;;;;5113099;28;20074;-84
2023/03/30 07:34:46;;;;;;;15.15;4.35;;;13.10;99.90;;;;;;5114317;28;20036;-83
2023/03/30 07:37:13;;;;;;;14.90;4.65;;;13.10;99.90;;;;;;5114271;28;20043;-83
2023/03/30 07:39:38;;;;;;;14.73;4.57;;;13.20;99.90;;;;;;5113700;28;20035;-87
2023/03/30 07:42:04;;;;;;;13.60;4.15;;;13.20;99.90;;;;;;5114152;28;20100;-84
2023/03/30 07:44:30;;;;;;;13.98;4.30;;;13.10;99.90;;;;;;5113063;28;20047;-83
2023/03/30 07:46:57;;;;;;;14.00;4.60;;;13.00;99.90;;;;;;5112831;28;20048;-83
2023/03/30 07:49:23;;;;;;;18.75;5.80;;;13.00;99.90;;;;;;5112342;28;20126;-83
2023/03/30 07:51:49;;;;;;;17.85;5.13;;;13.00;99.90;;;;;;5114145;28;20038;-84
2023/03/30 07:54:15;;;;;;;16.17;5.00;;;13.00;99.90;;;;;;5113260;28;20487;-84
2023/03/30 07:56:41;;;;;;;15.55;5.05;;;13.00;99.90;;;;;;5112930;28;20035;-83
2023/03/30 07:59:09;;;;;;;18.20;5.40;;;13.00;99.90;;;;;;5113007;28;20063;-83
2023/03/30 08:01:35;;;;;;;15.73;5.40;;;12.90;99.90;;;;;;5113416;28;20035;-83
2023/03/30 08:04:01;;;;;;;19.63;5.25;;;12.90;99.90;;;;;;5096217;28;20053;-83
2023/03/30 08:06:28;;;;;;;17.25;5.10;;;12.80;99.90;;;;;;5112573;28;20040;-84
2023/03/30 08:08:54;;;;;;;18.88;4.90;;;12.90;99.90;;;;;;5114487;27;20032;-83
2023/03/30 08:11:20;;;;;;;14.52;5.28;;;12.90;99.90;;;;;;5114667;28;20047;-84
2023/03/30 08:13:47;;;;;;;15.52;4.40;;;12.80;99.90;;;;;;5115801;28;20035;-83
2023/03/30 08:16:12;;;;;;;18.13;5.25;;;12.90;99.90;;;;;;5115979;28;20114;-84
2023/03/30 08:18:40;;;;;;;16.13;4.68;;;12.80;99.90;;;;;;5122716;28;20063;-83
2023/03/30 08:21:06;;;;;;;18.55;5.38;;;12.90;99.90;;;;;;5124283;27;20071;-83
2023/03/30 08:23:32;;;;;;;20.27;6.15;;;12.90;99.90;;;;;;5118959;28;20032;-82
2023/03/30 08:25:58;;;;;;;19.85;5.82;;;12.90;99.90;;;;;;5113501;28;20084;-85
2023/03/30 08:28:24;;;;;;;15.60;5.13;;;12.80;99.90;;;;;;5112309;28;20040;-84
2023/03/30 08:30:50;;;;;;;20.27;5.82;;;12.80;99.90;;;;;;5112562;28;20501;-84
2023/03/30 08:33:16;;;;;;;18.80;5.60;;;12.80;99.90;;;;;;5107307;28;20093;-84
2023/03/30 08:35:46;;;;;;;19.80;6.13;;;12.70;99.90;;;;;;5111435;28;20464;-84
2023/03/30 08:38:16;;;;;;;20.05;4.78;;;12.70;99.90;;;;;;5110018;28;20042;-85
2023/03/30 08:40:46;;;;;;;15.13;5.00;;;12.80;99.90;;;;;;5112699;28;20036;-83
2023/03/30 08:43:41;;;;;;;19.10;5.93;;;12.80;99.90;;;;;;5094820;28;20069;-84
2023/03/30 08:46:15;;;;;;;18.40;5.68;;;12.70;99.90;;;;;;5107241;28;20032;-84
2023/03/30 08:48:42;;;;;;;18.48;6.10;;;12.70;99.90;;;;;;5093377;28;20040;-85
2023/03/30 08:51:27;;;;;;;17.67;5.57;;;12.70;99.90;;;;;;5094409;28;20141;-84
2023/03/30 08:54:00;;;;;;;22.95;5.95;;;12.70;99.90;;;;;;5113423;28;20039;-84
2023/03/30 08:56:30;;;;;;;17.48;5.22;;;12.60;99.90;;;;;;5111455;28;20455;-84
2023/03/30 08:59:25;;;;;;;15.85;5.70;;;12.70;99.90;;;;;;5113008;28;20059;-84
2023/03/30 09:01:56;;;;;;;21.13;6.25;;;12.70;99.90;;;;;;5113926;28;20043;-83
2023/03/30 09:04:40;;;;;;;22.70;6.78;;;12.80;99.90;;;;;;5113673;28;20123;-83
2023/03/30 09:07:16;;;;;;;20.90;6.07;;;12.60;99.90;;;;;;5113752;28;20101;-84
2023/03/30 09:09:45;;;;;;;18.88;6.18;;;12.70;99.90;;;;;;5113273;28;20190;-83
2023/03/30 09:12:23;;;;;;;20.35;6.32;;;12.80;99.90;;;;;;5112735;28;20079;-84
2023/03/30 09:14:59;;;;;;;18.13;5.90;;;12.80;99.90;;;;;;5094664;28;20035;-84
2023/03/30 09:17:37;;;;;;;19.45;5.65;;;13.10;99.90;;;;;;5111887;28;20117;-83
2023/03/30 09:20:21;;;;;;;18.35;4.82;;;13.20;99.90;;;;;;5111009;28;20425;-84
2023/03/30 09:22:48;;;;;;;18.55;4.90;;;13.30;99.90;;;;;;5110719;28;20036;-82
2023/03/30 09:25:22;;;;;;;16.48;5.07;;;13.40;99.90;;;;;;5110539;28;20457;-82
2023/03/30 09:28:29;;;;;;;16.17;5.15;;;13.60;99.90;;;;;;5109152;28;20040;-84
2023/03/30 09:31:10;;;;;;;20.00;4.90;;;13.70;99.90;;;;;;5106539;28;20509;-83
2023/03/30 09:34:05;;;;;;;15.73;4.47;;;13.70;99.90;;;;;;5109610;28;20034;-85
2023/03/30 09:36:52;;;;;;;15.38;4.70;;;13.70;99.90;;;;;;5111444;28;20111;-84
2023/03/30 09:39:20;;;;;;;16.73;4.03;;;13.70;99.90;;;;;;5111590;28;20080;-84
2023/03/30 09:41:52;;;;;;;15.85;4.07;;;13.70;99.90;;;;;;5110201;28;20039;-84
2023/03/30 09:44:35;;;;;;;17.23;4.38;;;13.80;99.90;;;;;;5109451;28;20100;-83
2023/03/30 09:47:06;;;;;;;18.67;4.88;;;14.00;99.90;;;;;;5111498;28;20051;-86
2023/03/30 09:49:38;;;;;;;16.05;3.50;;;14.00;99.90;;;;;;5110506;28;20040;-88
2023/03/30 09:52:06;;;;;;;11.93;3.65;;;14.20;99.90;;;;;;5112231;28;20046;-85
2023/03/30 09:54:40;;;;;;;14.30;3.40;;;14.30;99.90;;;;;;5110942;28;20046;-85
2023/03/30 09:57:28;;;;;;;14.15;3.50;;;14.20;99.90;;;;;;5110773;28;20054;-83
2023/03/30 09:59:55;;;;;;;12.75;3.65;;;14.20;99.90;;;;;;5110278;28;20408;-84
2023/03/30 10:02:24;;;;;;;14.07;3.65;;;14.10;99.90;;;;;;5110431;28;20430;-86
2023/03/30 10:04:52;;;;;;;16.60;3.55;;;14.10;99.90;;;;;;5110348;28;20050;-84
2023/03/30 10:07:38;;;;;;;15.20;3.65;;;14.00;99.90;;;;;;5110269;28;20077;-88
2023/03/30 10:10:31;;;;;;;12.65;3.25;;;13.90;99.90;;;;;;5110919;28;20500;-84
2023/03/30 10:13:07;;;;;;;14.15;3.72;;;13.90;99.90;;;;;;5109167;28;20428;-84
2023/03/30 10:15:36;;;;;;;14.05;3.15;;;13.90;99.90;;;;;;5111450;28;20044;-84
2023/03/30 10:18:17;;;;;;;13.00;3.10;;;13.90;99.90;;;;;;5112397;28;20036;-87
2023/03/30 10:20:50;;;;;;;12.00;3.10;;;14.00;99.90;;;;;;5111447;28;20036;-84
2023/03/30 10:23:18;;;;;;;12.82;2.95;;;14.10;99.90;;;;;;5112136;28;20043;-85
2023/03/30 10:25:48;;;;;;;14.50;3.05;;;14.10;99.90;;;;;;5109926;28;20028;-84
2023/03/30 10:28:20;;;;;;;13.82;2.80;;;14.10;99.90;;;;;;5110807;28;20395;-84
2023/03/30 10:31:13;;;;;;;12.15;2.50;;;14.20;99.90;;;;;;5110401;28;20042;-86
2023/03/30 10:33:42;;;;;;;13.52;3.53;;;14.30;99.90;;;;;;5109091;28;20035;-85
2023/03/30 10:36:08;;;;;;;13.90;3.33;;;14.30;99.90;;;;;;5111747;28;20472;-85
2023/03/30 10:38:35;;;;;;;14.20;3.75;;;14.30;99.90;;;;;;5110834;28;20088;-85
2023/03/30 10:41:12;;;;;;;13.98;3.63;;;14.40;99.90;;;;;;5110766;28;20499;-85
2023/03/30 10:43:40;;;;;;;14.25;3.80;;;14.40;99.90;;;;;;5111467;28;20040;-87
2023/03/30 10:46:18;;;;;;;13.02;2.88;;;14.50;99.90;;;;;;5112094;28;20115;-86
2023/03/30 10:49:16;;;;;;;14.50;3.38;;;14.50;99.90;;;;;;5091751;28;20503;-84
2023/03/30 10:52:08;;;;;;;12.88;3.20;;;14.50;99.90;;;;;;5106478;28;20043;-86
2023/03/30 10:54:41;;;;;;;15.05;3.30;;;14.60;99.90;;;;;;5111225;28;20423;-86
2023/03/30 10:57:16;;;;;;;13.82;3.35;;;14.70;99.90;;;;;;5111310;28;20087;-84
2023/03/30 11:00:08;;;;;;;12.77;3.05;;;14.90;99.90;;;;;;5113807;28;20048;-86
2023/03/30 11:02:48;;;;;;;11.07;2.90;;;14.90;99.90;;;;;;5111732;28;20040;-84
2023/03/30 11:05:29;;;;;;;10.70;3.15;;;15.00;99.90;;;;;;5110891;28;20042;-85
2023/03/30 11:08:03;;;;;;;;;;;15.00;99.90;;;;;;5111441;28;20043;-86
2023/03/30 11:10:34;;;;;;;12.30;3.10;;;14.90;99.90;;;;;;5114007;28;19924;-88
2023/03/30 11:13:31;;;;;;;13.40;3.70;;;15.00;99.90;;;;;;5113532;28;20120;-87
2023/03/30 11:16:15;;;;;;;13.13;3.58;;;15.00;99.90;;;;;;5099029;28;20052;-87
2023/03/30 11:18:46;;;;;;;13.30;2.90;;;15.20;99.90;;;;;;5114247;28;20411;-87
2023/03/30 11:21:34;;;;;;;10.23;2.45;;;15.20;99.90;;;;;;5113354;28;20039;-89
2023/03/30 11:24:11;;;;;;;11.75;2.90;;;15.20;99.90;;;;;;5091529;28;20504;-88
2023/03/30 11:26:48;;;;;;;13.15;3.40;;;15.10;99.90;;;;;;5100645;28;20392;-88
2023/03/30 11:29:33;;;;;;;14.93;3.35;;;15.20;99.90;;;;;;5112124;28;20137;-87
2023/03/30 11:32:14;;;;;;;13.88;3.30;;;15.20;99.90;;;;;;5112225;28;20118;-89
2023/03/30 11:35:11;;;;;;;13.48;3.80;;;15.30;99.90;;;;;;5110283;28;20075;-88
2023/03/30 11:37:51;;;;;;;18.10;4.47;;;15.40;99.90;;;;;;5111649;28;20117;-87
2023/03/30 11:40:26;;;;;;;13.95;3.78;;;15.30;99.90;;;;;;5109339;28;20099;-87
2023/03/30 11:42:52;;;;;;;16.05;4.00;;;15.20;99.90;;;;;;5111778;28;20402;-90
2023/03/30 11:45:39;;;;;;;17.80;4.30;;;15.20;99.90;;;;;;5111800;28;20040;-85
2023/03/30 11:48:38;;;;;;;13.68;3.83;;;15.30;99.90;;;;;;5110987;28;20124;-89
2023/03/30 11:51:03;;;;;;;17.70;4.05;;;15.30;99.90;;;;;;5109067;28;20052;-88
2023/03/30 11:53:59;;;;;;;18.30;4.57;;;15.30;99.90;;;;;;5109412;28;20152;-86
2023/03/30 11:56:28;;;;;;;16.75;4.53;;;15.50;99.90;;;;;;5097869;28;20404;-87
2023/03/30 11:59:04;;;;;;;13.52;3.58;;;15.40;99.90;;;;;;5110093;28;20117;-86
2023/03/30 12:01:39;;;;;;;14.23;3.75;;;15.60;99.90;;;;;;5108435;28;20081;-87
2023/03/30 12:04:14;;;;;;;14.15;4.05;;;15.70;99.90;;;;;;5109849;28;20073;-87
2023/03/30 12:06:44;;;;;;;16.70;4.00;;;15.90;99.90;;;;;;5114445;28;20496;-88
2023/03/30 12:09:28;;;;;;;13.65;3.67;;;15.90;99.90;;;;;;5117263;28;20046;-88
2023/03/30 12:11:56;;;;;;;16.08;3.78;;;15.90;99.90;;;;;;5120643;28;20161;-88
2023/03/30 12:14:39;;;;;;;16.00;3.97;;;15.60;99.90;;;;;;5123880;28;20036;-86
2023/03/30 12:17:38;;;;;;;13.00;4.03;;;15.60;99.90;;;;;;5129576;28;20040;-88
2023/03/30 12:20:25;;;;;;;18.60;5.07;;;15.50;99.90;;;;;;5118755;28;20042;-90
2023/03/30 12:22:56;;;;;;;13.65;3.88;;;15.40;99.90;;;;;;5103664;28;20044;-87
2023/03/30 12:25:59;;;;;;;14.15;3.95;;;15.40;99.90;;;;;;5113431;28;20329;-89
2023/03/30 12:28:38;;;;;;;18.23;4.65;;;15.40;99.90;;;;;;5113944;28;20097;-88
2023/03/30 12:31:04;;;;;;;15.68;4.38;;;15.50;99.90;;;;;;5113365;28;20039;-88
2023/03/30 12:33:50;;;;;;;17.55;4.18;;;15.60;99.90;;;;;;5113368;28;20028;-89
2023/03/30 12:36:41;;;;;;;13.75;3.65;;;15.60;99.90;;;;;;5111826;28;20035;-86
2023/03/30 12:39:49;;;;;;;15.13;3.70;;;15.60;99.90;;;;;;5099108;28;20040;-88
2023/03/30 12:42:25;;;;;;;14.10;3.45;;;15.40;99.90;;;;;;5095972;28;20100;-89
2023/03/30 12:45:24;;;;;;;16.30;3.90;;;15.50;99.90;;;;;;5114910;28;20115;-89
2023/03/30 12:48:28;;;;;;;14.95;3.75;;;15.60;99.90;;;;;;5115012;28;20043;-88
2023/03/30 12:51:10;;;;;;;16.08;4.22;;;15.60;99.90;;;;;;5100940;28;20073;-91
2023/03/30 12:53:38;;;;;;;17.63;4.15;;;15.50;99.90;;;;;;5114143;28;20031;-87
2023/03/30 12:56:30;;;;;;;18.15;4.50;;;15.60;99.90;;;;;;5112652;28;20065;-88
2023/03/30 12:59:35;;;;;;;18.40;4.05;;;15.60;99.90;;;;;;5114138;28;20051;-88
2023/03/30 13:02:12;;;;;;;21.25;5.88;;;15.50;99.90;;;;;;5114360;28;20043;-88
2023/03/30 13:04:42;;;;;;;19.10;4.68;;;15.40;99.90;;;;;;5113326;28;20046;-89